createdAt,value
2022-12-14T00:00:23.138Z,9.53
2022-12-14T00:02:53.795Z,10.10
2022-12-14T00:05:24.408Z,10.33
2022-12-14T00:07:54.967Z,10.33
2022-12-14T00:10:23.186Z,9.63
2022-12-14T00:12:55.070Z,9.30
2022-12-14T00:15:25.475Z,9.67
2022-12-14T00:17:54.460Z,8.70
2022-12-14T00:20:22.665Z,8.80
2022-12-14T00:22:52.447Z,9.50
2022-12-14T00:25:20.664Z,10.00
2022-12-14T00:27:50.436Z,9.00
2022-12-14T00:30:21.711Z,8.53
2022-12-14T00:32:49.850Z,8.67
2022-12-14T00:35:19.098Z,8.53
2022-12-14T00:37:49.843Z,8.10
2022-12-14T00:40:20.148Z,8.27
2022-12-14T00:42:50.300Z,8.03
2022-12-14T00:45:19.800Z,8.03
2022-12-14T00:47:47.894Z,8.13
2022-12-14T00:50:16.167Z,7.27
2022-12-14T00:52:44.278Z,8.20
2022-12-14T00:55:14.945Z,7.93
2022-12-14T00:57:45.352Z,8.57
2022-12-14T01:00:16.527Z,7.60
2022-12-14T01:02:46.058Z,7.90
2022-12-14T01:05:16.989Z,7.63
2022-12-14T01:07:45.194Z,8.33
2022-12-14T01:10:16.850Z,8.03
2022-12-14T01:12:45.045Z,7.43
2022-12-14T01:15:13.200Z,7.40
2022-12-14T01:17:41.359Z,7.13
2022-12-14T01:20:11.883Z,8.03
2022-12-14T01:22:40.137Z,7.63
2022-12-14T01:25:08.672Z,7.57
2022-12-14T01:27:36.895Z,6.73
2022-12-14T01:30:05.655Z,7.87
2022-12-14T01:32:35.998Z,7.23
2022-12-14T01:35:04.255Z,7.53
2022-12-14T01:37:33.981Z,7.07
2022-12-14T01:40:02.405Z,6.93
2022-12-14T01:42:35.245Z,7.40
2022-12-14T01:45:03.873Z,7.53
2022-12-14T01:47:43.472Z,6.60
2022-12-14T01:50:19.766Z,7.07
2022-12-14T01:52:50.675Z,5.63
2022-12-14T01:55:23.825Z,6.17
2022-12-14T01:57:55.673Z,7.03
2022-12-14T02:00:24.530Z,7.70
2022-12-14T02:02:57.956Z,6.97
2022-12-14T02:05:32.653Z,7.33
2022-12-14T02:08:02.463Z,6.50
2022-12-14T02:10:32.366Z,6.67
2022-12-14T02:13:06.893Z,6.57
2022-12-14T02:15:36.849Z,5.97
2022-12-14T02:18:10.097Z,6.47
2022-12-14T02:20:48.934Z,6.27
2022-12-14T02:23:51.008Z,5.77
2022-12-14T02:27:04.337Z,6.23
2022-12-14T02:29:53.852Z,6.67
2022-12-14T02:32:42.236Z,7.07
2022-12-14T02:35:24.097Z,6.17
2022-12-14T02:38:03.691Z,6.17
2022-12-14T02:40:40.891Z,5.93
2022-12-14T02:43:17.608Z,5.93
2022-12-14T02:45:53.902Z,5.40
2022-12-14T02:48:27.571Z,6.37
2022-12-14T02:51:04.554Z,5.73
2022-12-14T02:53:37.647Z,5.63
2022-12-14T02:56:11.177Z,4.90
2022-12-14T02:58:48.821Z,6.03
2022-12-14T03:01:22.317Z,5.33
2022-12-14T03:03:50.565Z,4.97
2022-12-14T03:06:26.281Z,5.70
2022-12-14T03:08:59.185Z,6.23
2022-12-14T03:11:32.799Z,5.43
2022-12-14T03:14:06.514Z,4.93
2022-12-14T03:16:42.676Z,5.13
2022-12-14T03:19:16.831Z,5.40
2022-12-14T03:21:48.796Z,5.03
2022-12-14T03:24:21.687Z,5.20
2022-12-14T03:26:55.848Z,4.87
2022-12-14T03:29:28.987Z,4.80
2022-12-14T03:32:03.926Z,5.03
2022-12-14T03:34:36.301Z,4.83
2022-12-14T03:37:12.557Z,5.00
2022-12-14T03:39:44.722Z,5.17
2022-12-14T03:42:22.878Z,5.00
2022-12-14T03:45:00.121Z,4.63
2022-12-14T03:47:57.622Z,4.43
2022-12-14T03:50:32.134Z,5.10
2022-12-14T03:53:07.838Z,3.70
2022-12-14T03:55:40.044Z,4.47
2022-12-14T03:58:22.833Z,4.67
2022-12-14T04:00:58.774Z,4.80
2022-12-14T04:03:41.860Z,5.03
2022-12-14T04:06:17.947Z,4.23
2022-12-14T04:08:52.661Z,4.90
2022-12-14T04:11:42.395Z,4.63
2022-12-14T04:14:34.435Z,4.50
2022-12-14T04:17:26.237Z,4.27
2022-12-14T04:20:02.190Z,4.03
2022-12-14T04:22:35.379Z,4.87
2022-12-14T04:25:25.442Z,4.97
2022-12-14T04:27:57.626Z,4.83
2022-12-14T04:30:24.884Z,5.17
2022-12-14T04:32:57.187Z,5.03
2022-12-14T04:35:30.328Z,4.47
2022-12-14T04:38:03.571Z,4.37
2022-12-14T04:40:38.197Z,5.27
2022-12-14T04:43:09.549Z,4.87
2022-12-14T04:45:44.136Z,4.27
2022-12-14T04:48:22.846Z,4.13
2022-12-14T04:50:57.316Z,4.53
2022-12-14T04:53:31.196Z,4.53
2022-12-14T04:56:09.381Z,4.80
2022-12-14T04:58:42.012Z,4.60
2022-12-14T05:01:22.437Z,4.60
2022-12-14T05:04:09.533Z,4.33
2022-12-14T05:06:49.389Z,4.83
2022-12-14T05:09:25.705Z,4.60
2022-12-14T05:12:05.976Z,4.83
2022-12-14T05:14:38.469Z,4.07
2022-12-14T05:17:09.107Z,4.47
2022-12-14T05:19:48.705Z,4.73
2022-12-14T05:22:19.303Z,4.43
2022-12-14T05:24:47.421Z,3.93
2022-12-14T05:27:15.537Z,4.47
2022-12-14T05:29:45.967Z,4.57
2022-12-14T05:32:16.391Z,4.23
2022-12-14T05:34:44.635Z,4.43
2022-12-14T05:37:18.417Z,5.80
2022-12-14T05:39:48.408Z,4.73
2022-12-14T05:42:18.800Z,4.60
2022-12-14T05:44:46.947Z,5.30
2022-12-14T05:47:17.738Z,4.07
2022-12-14T05:49:45.871Z,4.47
2022-12-14T05:52:17.823Z,3.60
2022-12-14T05:54:47.253Z,4.30
2022-12-14T05:57:15.302Z,5.13
2022-12-14T05:59:43.373Z,4.30
2022-12-14T06:02:11.706Z,4.43
2022-12-14T06:04:40.022Z,4.50
2022-12-14T06:07:10.771Z,4.33
2022-12-14T06:09:41.601Z,4.60
2022-12-14T06:12:13.345Z,5.13
2022-12-14T06:14:41.423Z,5.13
2022-12-14T06:17:09.578Z,5.10
2022-12-14T06:19:39.688Z,6.30
2022-12-14T06:22:07.817Z,6.70
2022-12-14T06:24:38.451Z,6.20
2022-12-14T06:27:09.038Z,7.10
2022-12-14T06:29:38.614Z,7.17
2022-12-14T06:32:06.971Z,5.60
2022-12-14T06:34:40.610Z,5.90
2022-12-14T06:37:10.325Z,6.57
2022-12-14T06:39:38.858Z,4.30
2022-12-14T06:42:10.126Z,5.60
2022-12-14T06:44:39.598Z,4.77
2022-12-14T06:47:07.942Z,4.03
2022-12-14T06:49:36.026Z,4.87
2022-12-14T06:52:04.184Z,4.33
2022-12-14T06:54:34.696Z,6.47
2022-12-14T06:57:05.012Z,4.27
2022-12-14T06:59:33.116Z,4.90
2022-12-14T07:02:05.231Z,4.50
2022-12-14T07:04:33.569Z,4.30
2022-12-14T07:07:03.697Z,4.90
2022-12-14T07:09:31.800Z,4.17
2022-12-14T07:12:02.390Z,4.57
2022-12-14T07:14:30.486Z,4.67
2022-12-14T07:16:58.678Z,4.23
2022-12-14T07:19:30.586Z,4.00
2022-12-14T07:22:03.970Z,4.07
2022-12-14T07:24:34.426Z,3.77
2022-12-14T07:27:04.955Z,4.37
2022-12-14T07:29:34.948Z,5.00
2022-12-14T07:32:03.306Z,4.47
2022-12-14T07:34:32.808Z,4.10
2022-12-14T07:37:01.118Z,3.83
2022-12-14T07:39:31.481Z,4.43
2022-12-14T07:41:59.695Z,4.57
2022-12-14T07:44:28.181Z,4.50
2022-12-14T07:46:56.311Z,4.90
2022-12-14T07:49:26.679Z,4.70
2022-12-14T07:51:56.140Z,4.93
2022-12-14T07:54:25.009Z,4.13
2022-12-14T07:56:55.643Z,4.27
2022-12-14T07:59:26.282Z,4.37
2022-12-14T08:01:55.687Z,4.87
2022-12-14T08:04:24.042Z,4.30
2022-12-14T08:06:52.219Z,3.90
2022-12-14T08:09:23.769Z,4.07
2022-12-14T08:11:52.019Z,4.53
2022-12-14T08:14:20.567Z,4.37
2022-12-14T08:16:50.197Z,4.63
2022-12-14T08:19:19.699Z,5.50
2022-12-14T08:21:48.210Z,4.40
2022-12-14T08:24:18.556Z,3.97
2022-12-14T08:26:49.355Z,4.50
2022-12-14T08:29:18.559Z,4.00
2022-12-14T08:31:46.775Z,5.77
2022-12-14T08:34:15.837Z,4.27
2022-12-14T08:36:43.952Z,4.13
2022-12-14T08:39:13.307Z,5.27
2022-12-14T08:41:44.632Z,6.03
2022-12-14T08:44:16.935Z,6.73
2022-12-14T08:46:47.911Z,7.87
2022-12-14T08:49:16.227Z,8.90
2022-12-14T08:51:44.505Z,9.17
2022-12-14T08:54:15.224Z,8.40
2022-12-14T08:56:44.933Z,9.20
2022-12-14T08:59:44.002Z,8.63
2022-12-14T09:02:04.882Z,9.27
2022-12-14T09:04:36.119Z,8.07
2022-12-14T09:07:06.521Z,8.40
2022-12-14T09:09:37.247Z,8.07
2022-12-14T09:12:08.071Z,7.87
2022-12-14T09:14:37.846Z,8.33
2022-12-14T09:17:06.063Z,6.43
2022-12-14T09:19:34.185Z,8.40
2022-12-14T09:22:04.704Z,6.97
2022-12-14T09:24:32.964Z,7.97
2022-12-14T09:27:04.300Z,7.80
2022-12-14T09:29:32.567Z,7.47
2022-12-14T09:32:02.219Z,6.90
2022-12-14T09:34:30.414Z,7.40
2022-12-14T09:36:59.053Z,7.60
2022-12-14T09:39:29.626Z,7.37
2022-12-14T09:42:07.718Z,8.10
2022-12-14T09:44:48.501Z,8.57
2022-12-14T09:47:21.024Z,7.47
2022-12-14T09:49:55.428Z,9.80
2022-12-14T09:52:27.757Z,10.27
2022-12-14T09:54:58.188Z,9.80
2022-12-14T09:57:33.263Z,10.60
2022-12-14T10:00:01.675Z,12.13
2022-12-14T10:02:52.297Z,14.30
2022-12-14T10:05:44.937Z,13.57
2022-12-14T10:08:22.174Z,15.10
2022-12-14T10:11:02.401Z,12.63
2022-12-14T10:13:44.110Z,10.63
2022-12-14T10:16:23.478Z,7.60
2022-12-14T10:19:03.771Z,8.10
2022-12-14T10:21:49.505Z,7.10
2022-12-14T10:24:25.289Z,7.03
2022-12-14T10:26:55.016Z,5.80
2022-12-14T10:29:30.439Z,5.10
2022-12-14T10:32:08.899Z,5.53
2022-12-14T10:34:43.572Z,5.23
2022-12-14T10:37:25.613Z,5.83
2022-12-14T10:40:27.430Z,4.13
2022-12-14T10:43:09.578Z,5.37
2022-12-14T10:45:46.993Z,4.57
2022-12-14T10:48:33.371Z,4.73
2022-12-14T10:51:07.634Z,4.63
2022-12-14T10:53:41.654Z,4.67
2022-12-14T10:56:18.212Z,4.57
2022-12-14T10:59:06.504Z,4.90
2022-12-14T11:01:34.792Z,4.30
2022-12-14T11:04:03.003Z,4.93
2022-12-14T11:06:35.123Z,4.80
2022-12-14T11:09:21.528Z,4.30
2022-12-14T11:11:49.913Z,4.70
2022-12-14T11:14:20.852Z,4.60
2022-12-14T11:16:49.168Z,5.10
2022-12-14T11:19:21.506Z,4.77
2022-12-14T11:21:52.838Z,4.67
2022-12-14T11:24:25.234Z,4.53
2022-12-14T11:26:56.933Z,4.20
2022-12-14T11:29:31.626Z,4.33
2022-12-14T11:32:02.480Z,4.87
2022-12-14T11:34:35.903Z,5.03
2022-12-14T11:37:21.833Z,4.33
2022-12-14T11:39:54.821Z,5.10
2022-12-14T11:42:26.094Z,4.70
2022-12-14T11:44:54.467Z,5.20
2022-12-14T11:47:25.582Z,4.70
2022-12-14T11:49:55.616Z,5.20
2022-12-14T11:52:40.858Z,6.17
2022-12-14T11:55:14.072Z,5.37
2022-12-14T11:57:50.094Z,4.83
2022-12-14T12:00:27.094Z,5.30
2022-12-14T12:03:02.213Z,4.27
2022-12-14T12:05:33.924Z,5.47
2022-12-14T12:08:03.954Z,5.97
2022-12-14T12:10:41.725Z,5.00
2022-12-14T12:13:21.121Z,6.57
2022-12-14T12:15:53.279Z,5.23
2022-12-14T12:18:28.388Z,5.70
2022-12-14T12:21:02.547Z,5.23
2022-12-14T12:23:36.754Z,5.67
2022-12-14T12:26:12.379Z,5.30
2022-12-14T12:28:47.630Z,5.60
2022-12-14T12:31:27.318Z,4.70
2022-12-14T12:34:00.512Z,5.07
2022-12-14T12:36:30.623Z,4.77
2022-12-14T12:39:06.342Z,5.17
2022-12-14T12:41:53.169Z,5.17
2022-12-14T12:44:35.401Z,4.87
2022-12-14T12:47:38.239Z,5.23
2022-12-14T12:50:03.044Z,6.47
2022-12-14T12:52:35.457Z,4.80
2022-12-14T12:55:10.419Z,5.20
2022-12-14T12:57:44.386Z,5.27
2022-12-14T13:00:18.993Z,5.00
2022-12-14T13:02:55.690Z,5.40
2022-12-14T13:05:46.227Z,5.77
2022-12-14T13:08:24.627Z,5.50
2022-12-14T13:13:52.702Z,5.33
2022-12-14T13:16:27.477Z,4.73
2022-12-14T13:19:48.875Z,5.03
2022-12-14T13:21:55.075Z,4.90
2022-12-14T13:24:25.427Z,4.77
2022-12-14T13:27:25.742Z,4.93
2022-12-14T13:30:06.613Z,5.03
2022-12-14T13:32:48.586Z,5.57
2022-12-14T13:35:38.138Z,5.37
2022-12-14T13:38:30.981Z,5.40
2022-12-14T13:41:17.261Z,4.73
2022-12-14T13:44:00.368Z,5.63
2022-12-14T13:46:31.078Z,4.80
2022-12-14T13:49:04.499Z,4.67
2022-12-14T13:51:35.810Z,5.47
2022-12-14T13:54:06.808Z,5.90
2022-12-14T13:56:38.284Z,4.83
2022-12-14T13:59:26.313Z,5.50
2022-12-14T14:02:00.654Z,5.47
2022-12-14T14:04:30.636Z,4.63
2022-12-14T14:07:34.510Z,6.30
2022-12-14T14:10:05.949Z,5.83
2022-12-14T14:12:44.879Z,5.87
2022-12-14T14:15:35.110Z,5.10
2022-12-14T14:18:15.763Z,4.93
2022-12-14T14:20:46.550Z,5.00
2022-12-14T14:23:37.360Z,6.10
2022-12-14T14:26:26.037Z,4.77
2022-12-14T14:29:20.553Z,5.60
2022-12-14T14:31:51.929Z,6.37
2022-12-14T14:34:37.400Z,5.60
2022-12-14T14:37:26.619Z,5.93
2022-12-14T14:40:23.532Z,5.33
2022-12-14T14:43:05.639Z,5.90
2022-12-14T14:45:43.143Z,6.23
2022-12-14T14:48:29.012Z,5.70
2022-12-14T14:51:09.894Z,6.30
2022-12-14T14:53:41.073Z,5.83
2022-12-14T14:56:35.960Z,5.97
2022-12-14T14:59:43.736Z,6.47
2022-12-14T15:02:31.502Z,5.77
2022-12-14T15:05:41.705Z,6.07
2022-12-14T15:07:58.569Z,6.40
2022-12-14T15:10:33.461Z,6.63
2022-12-14T15:13:06.117Z,5.73
2022-12-14T15:15:38.161Z,6.00
2022-12-14T15:18:16.871Z,6.47
2022-12-14T15:20:54.676Z,6.83
2022-12-14T15:23:28.721Z,6.63
2022-12-14T15:25:58.976Z,6.20
2022-12-14T15:28:29.614Z,6.80
2022-12-14T15:31:00.127Z,6.83
2022-12-14T15:33:32.291Z,6.03
2022-12-14T15:36:04.521Z,5.77
2022-12-14T15:38:38.186Z,6.70
2022-12-14T15:41:08.163Z,6.50
2022-12-14T15:43:36.673Z,5.83
2022-12-14T15:46:16.658Z,6.43
2022-12-14T15:48:47.481Z,6.60
2022-12-14T15:51:19.779Z,6.60
2022-12-14T15:53:51.434Z,6.50
2022-12-14T15:56:46.290Z,6.70
2022-12-14T15:59:18.600Z,7.07
2022-12-14T16:01:55.993Z,8.07
2022-12-14T16:04:29.114Z,8.07
2022-12-14T16:07:08.141Z,7.57
2022-12-14T16:09:42.208Z,7.83
2022-12-14T16:12:18.145Z,7.43
2022-12-14T16:14:54.293Z,7.30
2022-12-14T16:17:29.409Z,7.33
2022-12-14T16:20:00.781Z,7.47
2022-12-14T16:22:30.193Z,6.73
2022-12-14T16:25:17.358Z,7.03
2022-12-14T16:27:49.984Z,8.27
2022-12-14T16:30:23.011Z,8.40
2022-12-14T16:32:54.376Z,9.53
2022-12-14T16:35:26.586Z,10.23
2022-12-14T16:37:56.485Z,12.10
2022-12-14T16:40:35.658Z,11.57
2022-12-14T16:43:05.611Z,10.77
2022-12-14T16:46:10.038Z,11.50
2022-12-14T16:48:41.363Z,10.53
2022-12-14T16:52:05.633Z,10.73
2022-12-14T16:54:26.441Z,8.73
2022-12-14T16:57:00.127Z,9.97
2022-12-14T16:59:39.533Z,10.23
2022-12-14T17:02:27.247Z,10.00
2022-12-14T17:04:57.296Z,10.40
2022-12-14T17:07:28.052Z,8.97
2022-12-14T17:09:59.361Z,10.20
2022-12-14T17:12:28.956Z,10.00
2022-12-14T17:14:57.289Z,9.40
2022-12-14T17:17:32.844Z,10.43
2022-12-14T17:20:01.132Z,10.30
2022-12-14T17:22:31.809Z,10.07
2022-12-14T17:25:01.089Z,9.90
2022-12-14T17:27:30.777Z,10.67
2022-12-14T17:29:59.131Z,11.67
2022-12-14T17:32:31.600Z,13.57
2022-12-14T17:35:00.182Z,14.73
2022-12-14T17:37:34.146Z,15.10
2022-12-14T17:40:05.605Z,17.23
2022-12-14T17:42:39.857Z,20.13
2022-12-14T17:45:21.461Z,19.67
2022-12-14T17:47:49.979Z,23.27
2022-12-14T17:50:19.519Z,23.87
2022-12-14T17:52:51.061Z,22.53
2022-12-14T17:55:21.036Z,22.50
2022-12-14T17:57:51.445Z,20.27
2022-12-14T18:00:39.600Z,19.07
2022-12-14T18:03:08.296Z,18.73
2022-12-14T18:05:36.542Z,14.23
2022-12-14T18:08:07.272Z,13.63
2022-12-14T18:10:38.756Z,13.27
2022-12-14T18:13:08.423Z,11.47
2022-12-14T18:15:39.347Z,11.97
2022-12-14T18:18:08.239Z,11.77
2022-12-14T18:20:40.963Z,11.63
2022-12-14T18:23:13.878Z,12.60
2022-12-14T18:25:44.695Z,11.33
2022-12-14T18:28:18.127Z,11.50
2022-12-14T18:30:49.820Z,10.63
2022-12-14T18:33:20.227Z,10.47
2022-12-14T18:35:50.308Z,12.10
2022-12-14T18:38:18.616Z,11.50
2022-12-14T18:40:51.237Z,11.13
2022-12-14T18:43:24.987Z,11.33
2022-12-14T18:45:54.647Z,12.30
2022-12-14T18:48:26.344Z,13.17
2022-12-14T18:50:56.520Z,13.70
2022-12-14T18:53:25.968Z,14.43
2022-12-14T18:55:54.886Z,15.87
2022-12-14T18:58:28.117Z,15.27
2022-12-14T19:01:00.836Z,15.27
2022-12-14T19:03:32.411Z,13.60
2022-12-14T19:06:34.663Z,14.30
2022-12-14T19:08:53.728Z,14.17
2022-12-14T19:11:30.689Z,14.73
2022-12-14T19:14:00.626Z,16.33
2022-12-14T19:16:31.251Z,13.37
2022-12-14T19:18:59.702Z,11.93
2022-12-14T19:21:31.303Z,11.83
2022-12-14T19:24:01.663Z,13.40
2022-12-14T19:26:30.253Z,13.40
2022-12-14T19:29:00.272Z,13.60
2022-12-14T19:31:30.924Z,12.97
2022-12-14T19:34:01.507Z,14.27
2022-12-14T19:36:31.852Z,14.87
2022-12-14T19:39:02.148Z,14.33
2022-12-14T19:41:30.409Z,14.23
2022-12-14T19:44:02.320Z,15.47
2022-12-14T19:46:32.579Z,15.10
2022-12-14T19:49:03.398Z,15.23
2022-12-14T19:51:31.648Z,15.97
2022-12-14T19:54:03.013Z,16.50
2022-12-14T19:56:31.273Z,18.77
2022-12-14T19:59:03.634Z,18.87
2022-12-14T20:01:38.913Z,20.87
2022-12-14T20:04:10.430Z,18.90
2022-12-14T20:06:38.673Z,22.60
2022-12-14T20:09:07.838Z,19.47
2022-12-14T20:11:37.961Z,22.23
2022-12-14T20:14:07.569Z,20.67
2022-12-14T20:16:35.869Z,21.53
2022-12-14T20:19:07.424Z,22.10
2022-12-14T20:21:38.041Z,22.07
2022-12-14T20:24:09.102Z,23.07
2022-12-14T20:26:37.554Z,20.10
2022-12-14T20:29:09.113Z,20.77
2022-12-14T20:31:37.651Z,26.40
2022-12-14T20:34:07.208Z,24.63
2022-12-14T20:36:35.749Z,26.47
2022-12-14T20:39:06.086Z,27.13
2022-12-14T20:41:34.974Z,26.33
2022-12-14T20:44:03.327Z,27.03
2022-12-14T20:46:34.339Z,25.67
2022-12-14T20:49:07.012Z,23.37
2022-12-14T20:51:38.996Z,20.97
2022-12-14T20:54:12.696Z,19.30
2022-12-14T20:56:41.337Z,17.77
2022-12-14T20:59:11.054Z,14.67
2022-12-14T21:01:42.455Z,15.40
2022-12-14T21:04:10.805Z,14.73
2022-12-14T21:06:41.024Z,15.50
2022-12-14T21:09:12.986Z,14.23
2022-12-14T21:12:00.876Z,15.47
2022-12-14T21:14:33.462Z,17.00
2022-12-14T21:17:06.444Z,19.03
2022-12-14T21:19:35.920Z,18.60
2022-12-14T21:22:04.305Z,16.90
2022-12-14T21:27:23.208Z,15.07
2022-12-14T21:29:52.228Z,15.00
2022-12-14T21:32:24.113Z,14.13
2022-12-14T21:34:52.562Z,12.80
2022-12-14T21:37:20.843Z,11.83
2022-12-14T21:39:54.815Z,12.40
2022-12-14T21:42:23.316Z,14.30
2022-12-14T21:44:53.410Z,13.30
2022-12-14T21:47:27.234Z,13.83
2022-12-14T21:49:56.250Z,15.67
2022-12-14T21:52:26.733Z,14.90
2022-12-14T21:54:58.972Z,14.43
2022-12-14T21:57:49.763Z,13.07
2022-12-14T22:00:19.293Z,14.93
2022-12-14T22:02:48.933Z,14.30
2022-12-14T22:05:17.378Z,16.33
2022-12-14T22:07:47.809Z,16.20
2022-12-14T22:10:24.304Z,13.93
2022-12-14T22:12:52.817Z,15.60
2022-12-14T22:15:20.926Z,13.83
2022-12-14T22:17:51.940Z,13.30
2022-12-14T22:20:20.098Z,14.77
2022-12-14T22:22:48.298Z,13.47
2022-12-14T22:25:16.705Z,13.80
2022-12-14T22:27:49.692Z,12.97
2022-12-14T22:30:18.705Z,13.53
2022-12-14T22:32:47.850Z,14.80
2022-12-14T22:35:19.996Z,14.80
2022-12-14T22:37:50.260Z,11.50
2022-12-14T22:40:21.453Z,11.27
2022-12-14T22:42:51.621Z,11.07
2022-12-14T22:45:22.844Z,10.93
2022-12-14T22:47:50.962Z,12.50
2022-12-14T22:50:20.493Z,13.70
2022-12-14T22:52:49.871Z,14.23
2022-12-14T22:55:18.243Z,15.23
2022-12-14T22:57:48.629Z,14.40
2022-12-14T23:00:17.972Z,14.63
2022-12-14T23:02:49.131Z,14.83
2022-12-14T23:05:18.263Z,14.30
2022-12-14T23:07:47.940Z,13.63
2022-12-14T23:10:35.609Z,13.40
2022-12-14T23:13:20.964Z,13.50
2022-12-14T23:16:09.140Z,13.27
2022-12-14T23:18:56.910Z,13.10
2022-12-14T23:21:42.214Z,12.17
2022-12-14T23:24:29.023Z,12.83
2022-12-14T23:27:14.447Z,13.57
2022-12-14T23:30:02.393Z,14.70
2022-12-14T23:32:47.785Z,13.30
2022-12-14T23:35:35.667Z,13.70
2022-12-14T23:38:25.978Z,13.73
2022-12-14T23:41:17.137Z,14.00
2022-12-14T23:44:03.090Z,15.07
2022-12-14T23:46:48.769Z,15.17
2022-12-14T23:49:34.542Z,13.90
2022-12-14T23:52:23.008Z,13.40
2022-12-14T23:55:08.732Z,14.00
2022-12-14T23:57:58.134Z,12.23
